createdAt,value
2022-12-06T00:02:13.284Z,3.27
2022-12-06T00:04:58.661Z,3.73
2022-12-06T00:07:44.260Z,3.27
2022-12-06T00:10:29.700Z,3.53
2022-12-06T00:13:15.319Z,3.70
2022-12-06T00:16:02.828Z,3.73
2022-12-06T00:18:49.394Z,3.47
2022-12-06T00:21:36.916Z,3.27
2022-12-06T00:24:23.587Z,3.30
2022-12-06T00:27:09.227Z,3.90
2022-12-06T00:29:54.701Z,3.97
2022-12-06T00:32:40.059Z,3.60
2022-12-06T00:35:25.564Z,3.80
2022-12-06T00:38:11.095Z,3.40
2022-12-06T00:41:05.734Z,3.37
2022-12-06T00:43:52.425Z,3.20
2022-12-06T00:46:38.741Z,3.30
2022-12-06T00:49:24.500Z,3.33
2022-12-06T00:52:09.984Z,3.30
2022-12-06T00:54:55.547Z,3.27
2022-12-06T00:57:41.007Z,3.50
2022-12-06T01:00:27.390Z,3.30
2022-12-06T01:03:13.373Z,3.40
2022-12-06T01:06:03.129Z,3.73
2022-12-06T01:08:49.694Z,3.10
2022-12-06T01:11:35.637Z,3.60
2022-12-06T01:14:21.295Z,3.30
2022-12-06T01:17:06.869Z,3.03
2022-12-06T01:19:52.248Z,3.70
2022-12-06T01:22:37.664Z,3.33
2022-12-06T01:25:25.899Z,3.90
2022-12-06T01:28:12.009Z,3.53
2022-12-06T01:30:57.889Z,3.23
2022-12-06T01:33:43.970Z,3.33
2022-12-06T01:36:29.280Z,3.80
2022-12-06T01:39:14.882Z,3.80
2022-12-06T01:42:00.640Z,3.47
2022-12-06T01:44:50.404Z,4.23
2022-12-06T01:47:39.103Z,3.60
2022-12-06T01:50:32.703Z,3.70
2022-12-06T01:53:25.310Z,3.40
2022-12-06T01:56:11.698Z,3.47
2022-12-06T01:58:59.911Z,4.07
2022-12-06T02:01:46.920Z,3.60
2022-12-06T02:04:33.686Z,4.00
2022-12-06T02:07:21.918Z,3.33
2022-12-06T02:10:08.250Z,3.87
2022-12-06T02:12:56.806Z,4.10
2022-12-06T02:16:05.525Z,3.97
2022-12-06T02:18:58.317Z,3.60
2022-12-06T02:22:15.669Z,3.23
2022-12-06T02:25:04.091Z,3.73
2022-12-06T02:28:09.876Z,3.10
2022-12-06T02:31:07.767Z,3.27
2022-12-06T02:34:12.876Z,3.60
2022-12-06T02:37:09.613Z,3.07
2022-12-06T02:39:58.374Z,3.30
2022-12-06T02:43:02.111Z,3.30
2022-12-06T02:45:53.243Z,3.27
2022-12-06T02:48:40.562Z,3.00
2022-12-06T02:51:28.113Z,2.87
2022-12-06T02:54:14.562Z,2.83
2022-12-06T02:57:00.237Z,2.70
2022-12-06T02:59:54.770Z,3.20
2022-12-06T03:02:40.582Z,2.93
2022-12-06T03:05:36.028Z,2.80
2022-12-06T03:08:46.006Z,3.37
2022-12-06T03:11:57.132Z,2.87
2022-12-06T03:15:13.880Z,2.60
2022-12-06T03:18:18.295Z,2.90
2022-12-06T03:21:27.823Z,2.87
2022-12-06T03:24:15.085Z,2.63
2022-12-06T03:27:04.897Z,2.83
2022-12-06T03:29:55.350Z,2.47
2022-12-06T03:32:46.785Z,2.77
2022-12-06T03:35:34.816Z,2.30
2022-12-06T03:38:29.611Z,3.03
2022-12-06T03:41:18.486Z,2.30
2022-12-06T03:44:04.989Z,2.57
2022-12-06T03:46:56.726Z,2.40
2022-12-06T03:49:47.678Z,2.43
2022-12-06T03:52:33.797Z,2.43
2022-12-06T03:55:19.690Z,2.50
2022-12-06T03:58:05.214Z,2.70
2022-12-06T04:00:50.755Z,2.53
2022-12-06T04:03:36.446Z,2.50
2022-12-06T04:06:21.981Z,2.77
2022-12-06T04:09:25.852Z,2.70
2022-12-06T04:12:29.697Z,2.90
2022-12-06T04:15:15.266Z,2.63
2022-12-06T04:18:16.194Z,2.83
2022-12-06T04:21:23.140Z,3.10
2022-12-06T04:24:08.547Z,2.80
2022-12-06T04:27:13.806Z,2.90
2022-12-06T04:30:17.729Z,2.70
2022-12-06T04:33:21.935Z,2.97
2022-12-06T04:36:26.538Z,3.33
2022-12-06T04:39:16.246Z,2.40
2022-12-06T04:42:23.854Z,2.80
2022-12-06T04:45:09.759Z,2.40
2022-12-06T04:47:55.412Z,2.50
2022-12-06T04:50:40.880Z,2.50
2022-12-06T04:53:26.349Z,2.80
2022-12-06T04:56:11.896Z,2.77
2022-12-06T04:58:57.651Z,2.70
2022-12-06T05:01:43.377Z,2.80
2022-12-06T05:04:28.884Z,2.87
2022-12-06T05:07:14.394Z,2.70
2022-12-06T05:10:00.111Z,3.03
2022-12-06T05:12:45.780Z,3.00
2022-12-06T05:15:32.346Z,3.40
2022-12-06T05:18:18.495Z,3.43
2022-12-06T05:21:07.027Z,3.80
2022-12-06T05:23:55.050Z,3.80
2022-12-06T05:26:40.447Z,3.97
2022-12-06T05:29:26.100Z,4.77
2022-12-06T05:32:11.962Z,4.70
2022-12-06T05:34:57.582Z,4.30
2022-12-06T05:37:43.260Z,4.30
2022-12-06T05:40:28.908Z,4.63
2022-12-06T05:43:15.480Z,4.47
2022-12-06T05:46:01.257Z,3.83
2022-12-06T05:48:46.980Z,4.00
2022-12-06T05:51:32.366Z,4.00
2022-12-06T05:54:18.186Z,4.37
2022-12-06T05:57:03.624Z,4.13
2022-12-06T05:59:49.233Z,4.00
2022-12-06T06:02:34.775Z,4.33
2022-12-06T06:05:20.924Z,5.00
2022-12-06T06:08:06.728Z,4.80
2022-12-06T06:10:52.262Z,5.03
2022-12-06T06:13:37.877Z,5.00
2022-12-06T06:16:23.360Z,4.90
2022-12-06T06:19:08.996Z,5.03
2022-12-06T06:21:54.633Z,4.97
2022-12-06T06:24:42.137Z,4.93
2022-12-06T06:27:27.924Z,5.20
2022-12-06T06:30:14.093Z,4.37
2022-12-06T06:32:59.739Z,5.43
2022-12-06T06:35:45.322Z,5.03
2022-12-06T06:38:30.718Z,5.20
2022-12-06T06:41:16.904Z,5.67
2022-12-06T06:44:02.311Z,5.80
2022-12-06T06:46:47.719Z,4.80
2022-12-06T06:49:33.354Z,5.60
2022-12-06T06:52:20.044Z,4.60
2022-12-06T06:55:06.220Z,4.00
2022-12-06T06:57:52.258Z,3.67
2022-12-06T07:00:37.744Z,3.60
2022-12-06T07:03:24.476Z,3.57
2022-12-06T07:06:11.405Z,3.50
2022-12-06T07:08:57.155Z,3.83
2022-12-06T07:11:42.871Z,3.43
2022-12-06T07:14:28.690Z,4.07
2022-12-06T07:17:14.365Z,3.80
2022-12-06T07:20:00.125Z,4.43
2022-12-06T07:22:46.232Z,3.40
2022-12-06T07:25:33.705Z,3.80
2022-12-06T07:28:19.730Z,2.63
2022-12-06T07:31:12.481Z,2.90
2022-12-06T07:34:00.535Z,3.07
2022-12-06T07:36:46.118Z,3.13
2022-12-06T07:39:32.251Z,3.17
2022-12-06T07:42:36.324Z,2.80
2022-12-06T07:45:22.290Z,2.27
2022-12-06T07:48:07.988Z,2.60
2022-12-06T07:50:53.633Z,2.33
2022-12-06T07:53:40.464Z,2.77
2022-12-06T07:56:26.941Z,3.00
2022-12-06T07:59:13.131Z,2.73
2022-12-06T08:01:58.710Z,2.93
2022-12-06T08:04:44.422Z,2.30
2022-12-06T08:07:31.511Z,2.03
2022-12-06T08:10:17.175Z,2.33
2022-12-06T08:13:04.027Z,2.60
2022-12-06T08:15:49.865Z,2.50
2022-12-06T08:18:35.533Z,2.40
2022-12-06T08:21:21.052Z,2.30
2022-12-06T08:24:06.924Z,2.53
2022-12-06T08:26:53.187Z,2.17
2022-12-06T08:29:38.804Z,2.20
2022-12-06T08:32:24.777Z,2.53
2022-12-06T08:35:10.305Z,2.50
2022-12-06T08:37:55.751Z,2.50
2022-12-06T08:40:41.279Z,2.30
2022-12-06T08:43:26.751Z,2.10
2022-12-06T08:46:12.339Z,2.03
2022-12-06T08:48:58.618Z,1.97
2022-12-06T08:51:44.789Z,2.33
2022-12-06T08:54:30.284Z,2.13
2022-12-06T08:57:15.799Z,2.00
2022-12-06T09:00:02.057Z,1.80
2022-12-06T09:02:47.934Z,2.43
2022-12-06T09:05:35.568Z,2.00
2022-12-06T09:08:21.987Z,1.90
2022-12-06T09:11:08.470Z,2.28
2022-12-06T09:13:53.968Z,1.90
2022-12-06T09:16:42.510Z,1.80
2022-12-06T09:19:28.044Z,2.03
2022-12-06T09:22:13.436Z,2.10
2022-12-06T09:24:59.030Z,2.10
2022-12-06T09:27:44.840Z,1.77
2022-12-06T09:30:30.802Z,1.90
2022-12-06T09:33:16.366Z,1.90
2022-12-06T09:36:10.296Z,1.98
2022-12-06T09:39:06.651Z,1.77
2022-12-06T09:42:22.488Z,1.80
2022-12-06T09:45:11.129Z,2.20
2022-12-06T09:48:06.549Z,2.58
2022-12-06T09:50:58.222Z,2.27
2022-12-06T09:54:10.043Z,2.67
2022-12-06T09:57:06.223Z,2.35
2022-12-06T10:00:20.781Z,2.55
2022-12-06T10:03:35.767Z,3.70
2022-12-06T10:06:25.175Z,2.60
2022-12-06T10:09:35.372Z,3.33
2022-12-06T10:12:46.640Z,2.07
2022-12-06T10:16:02.062Z,2.08
2022-12-06T10:19:32.229Z,3.17
2022-12-06T10:22:28.614Z,2.78
2022-12-06T10:25:34.252Z,2.58
2022-12-06T10:28:26.485Z,2.03
2022-12-06T10:31:21.967Z,2.05
2022-12-06T10:34:38.411Z,2.50
2022-12-06T10:37:42.479Z,2.10
2022-12-06T10:40:48.926Z,1.90
2022-12-06T10:43:47.463Z,1.85
2022-12-06T10:47:06.585Z,2.50
2022-12-06T10:49:59.089Z,1.70
2022-12-06T10:52:51.493Z,2.00
2022-12-06T10:55:51.968Z,1.90
2022-12-06T10:58:48.837Z,2.58
2022-12-06T11:01:41.489Z,1.92
2022-12-06T11:04:34.755Z,2.53
2022-12-06T11:07:25.450Z,2.20
2022-12-06T11:10:33.365Z,1.50
2022-12-06T11:13:35.303Z,1.88
2022-12-06T11:16:43.382Z,2.30
2022-12-06T11:19:44.589Z,1.77
2022-12-06T11:22:47.989Z,1.75
2022-12-06T11:25:43.815Z,1.83
2022-12-06T11:28:38.384Z,1.65
2022-12-06T11:31:33.184Z,1.87
2022-12-06T11:34:30.812Z,1.52
2022-12-06T11:37:23.080Z,2.00
2022-12-06T11:40:25.078Z,1.88
2022-12-06T11:43:24.187Z,1.63
2022-12-06T11:46:12.960Z,1.90
2022-12-06T11:49:14.027Z,1.50
2022-12-06T11:52:06.293Z,1.75
2022-12-06T11:54:54.195Z,1.70
2022-12-06T11:57:46.722Z,1.80
2022-12-06T12:00:32.139Z,2.10
2022-12-06T12:03:31.570Z,1.60
2022-12-06T12:06:28.888Z,1.85
2022-12-06T12:09:19.931Z,1.35
2022-12-06T12:12:14.726Z,1.98
2022-12-06T12:15:00.716Z,1.50
2022-12-06T12:17:50.035Z,1.55
2022-12-06T12:20:44.913Z,1.60
2022-12-06T12:23:35.119Z,1.70
2022-12-06T12:26:22.073Z,2.10
2022-12-06T12:29:22.244Z,1.55
2022-12-06T12:32:11.697Z,1.75
2022-12-06T12:34:57.515Z,2.15
2022-12-06T12:37:43.963Z,1.48
2022-12-06T12:40:39.773Z,2.30
2022-12-06T12:43:33.897Z,1.40
2022-12-06T12:46:21.962Z,1.85
2022-12-06T12:49:23.658Z,1.83
2022-12-06T12:52:46.127Z,1.55
2022-12-06T12:55:32.074Z,1.83
2022-12-06T12:58:17.860Z,1.70
2022-12-06T13:01:13.105Z,1.63
2022-12-06T13:04:08.111Z,1.42
2022-12-06T13:07:07.520Z,2.00
2022-12-06T13:10:04.793Z,1.67
2022-12-06T13:13:01.259Z,1.67
2022-12-06T13:15:50.237Z,1.65
2022-12-06T13:18:44.679Z,1.42
2022-12-06T13:21:37.890Z,1.83
2022-12-06T13:24:27.321Z,1.48
2022-12-06T13:27:19.634Z,1.70
2022-12-06T13:30:27.717Z,1.20
2022-12-06T13:33:21.773Z,1.92
2022-12-06T13:36:13.642Z,1.40
2022-12-06T13:39:19.724Z,1.55
2022-12-06T13:42:21.226Z,1.85
2022-12-06T13:45:43.497Z,1.58
2022-12-06T13:48:51.923Z,1.20
2022-12-06T13:51:41.143Z,1.38
2022-12-06T13:54:31.276Z,1.50
2022-12-06T13:57:25.041Z,1.10
2022-12-06T14:00:32.459Z,1.67
2022-12-06T14:03:20.878Z,1.58
2022-12-06T14:06:15.248Z,1.20
2022-12-06T14:09:02.090Z,1.38
2022-12-06T14:11:47.823Z,1.27
2022-12-06T14:14:33.715Z,1.30
2022-12-06T14:17:52.653Z,1.38
2022-12-06T14:20:29.022Z,1.30
2022-12-06T14:23:41.763Z,1.75
2022-12-06T14:26:31.652Z,1.35
2022-12-06T14:29:22.791Z,1.23
2022-12-06T14:32:09.243Z,1.52
2022-12-06T14:35:02.500Z,1.73
2022-12-06T14:38:01.550Z,1.40
2022-12-06T14:41:05.783Z,1.65
2022-12-06T14:43:51.211Z,1.48
2022-12-06T14:46:37.880Z,1.27
2022-12-06T14:49:43.040Z,1.40
2022-12-06T14:52:30.944Z,1.42
2022-12-06T14:55:19.291Z,1.42
2022-12-06T14:58:20.035Z,1.40
2022-12-06T15:01:14.267Z,1.45
2022-12-06T15:04:02.718Z,1.50
2022-12-06T15:07:00.136Z,1.38
2022-12-06T15:09:46.390Z,1.33
2022-12-06T15:12:52.439Z,1.40
2022-12-06T15:15:47.512Z,1.80
2022-12-06T15:18:40.256Z,2.00
2022-12-06T15:21:25.956Z,1.58
2022-12-06T15:24:22.136Z,1.75
2022-12-06T15:27:07.588Z,1.38
2022-12-06T15:29:53.375Z,1.92
2022-12-06T15:32:39.168Z,2.20
2022-12-06T15:35:24.728Z,2.13
2022-12-06T15:38:10.902Z,1.42
2022-12-06T15:40:57.262Z,1.85
2022-12-06T15:43:43.044Z,1.30
2022-12-06T15:46:29.448Z,1.50
2022-12-06T15:49:21.562Z,1.35
2022-12-06T15:52:16.187Z,1.60
2022-12-06T15:55:02.212Z,1.90
2022-12-06T15:57:47.793Z,1.40
2022-12-06T16:00:33.529Z,1.42
2022-12-06T16:03:18.945Z,2.17
2022-12-06T16:06:04.636Z,2.07
2022-12-06T16:08:50.342Z,1.30
2022-12-06T16:11:35.814Z,1.60
2022-12-06T16:14:21.513Z,1.60
2022-12-06T16:17:06.970Z,1.50
2022-12-06T16:20:11.117Z,2.30
2022-12-06T16:23:15.983Z,1.50
2022-12-06T16:26:01.465Z,1.48
2022-12-06T16:28:46.964Z,1.80
2022-12-06T16:31:38.827Z,1.40
2022-12-06T16:34:29.857Z,1.55
2022-12-06T16:37:15.450Z,1.30
2022-12-06T16:40:00.998Z,1.60
2022-12-06T16:42:46.926Z,1.67
2022-12-06T16:45:38.226Z,1.67
2022-12-06T16:48:23.852Z,1.35
2022-12-06T16:51:10.559Z,1.37
2022-12-06T16:53:56.409Z,2.25
2022-12-06T16:56:43.215Z,1.70
2022-12-06T16:59:29.082Z,1.60
2022-12-06T17:02:29.251Z,2.20
2022-12-06T17:05:20.037Z,2.42
2022-12-06T17:08:05.546Z,3.08
2022-12-06T17:11:11.679Z,3.42
2022-12-06T17:13:57.118Z,5.70
2022-12-06T17:16:43.568Z,7.18
2022-12-06T17:19:31.135Z,6.60
2022-12-06T17:22:17.363Z,7.47
2022-12-06T17:25:04.517Z,6.50
2022-12-06T17:27:51.526Z,6.97
2022-12-06T17:30:37.196Z,6.20
2022-12-06T17:33:22.756Z,6.43
2022-12-06T17:36:10.166Z,6.40
2022-12-06T17:38:57.500Z,5.78
2022-12-06T17:42:01.996Z,5.75
2022-12-06T17:44:47.525Z,6.28
2022-12-06T17:47:33.774Z,5.95
2022-12-06T17:50:19.664Z,5.53
2022-12-06T17:53:05.529Z,5.72
2022-12-06T17:55:51.255Z,5.32
2022-12-06T17:58:37.054Z,5.50
2022-12-06T18:01:23.278Z,4.88
2022-12-06T18:04:09.827Z,5.25
2022-12-06T18:06:56.034Z,5.20
2022-12-06T18:09:41.857Z,4.50
2022-12-06T18:12:31.914Z,4.45
2022-12-06T18:15:38.097Z,5.00
2022-12-06T18:18:23.662Z,4.75
2022-12-06T18:21:10.854Z,4.25
2022-12-06T18:24:20.486Z,4.97
2022-12-06T18:27:03.181Z,4.10
2022-12-06T18:29:50.430Z,4.25
2022-12-06T18:32:36.478Z,4.38
2022-12-06T18:35:23.008Z,3.75
2022-12-06T18:38:09.737Z,4.28
2022-12-06T18:41:15.030Z,4.68
2022-12-06T18:44:02.715Z,3.75
2022-12-06T18:46:49.434Z,4.10
2022-12-06T18:49:36.232Z,3.78
2022-12-06T18:52:21.733Z,3.90
2022-12-06T18:55:07.946Z,3.47
2022-12-06T18:57:53.637Z,3.78
2022-12-06T19:00:45.823Z,3.65
2022-12-06T19:03:31.322Z,3.97
2022-12-06T19:06:23.953Z,3.58
2022-12-06T19:09:12.341Z,3.47
2022-12-06T19:11:58.372Z,3.15
2022-12-06T19:14:43.836Z,3.58
2022-12-06T19:17:29.253Z,2.80
2022-12-06T19:20:14.672Z,3.40
2022-12-06T19:23:00.230Z,3.20
2022-12-06T19:25:45.850Z,3.33
2022-12-06T19:28:32.906Z,3.33
2022-12-06T19:31:19.684Z,3.03
2022-12-06T19:34:05.437Z,3.05
2022-12-06T19:36:52.591Z,2.60
2022-12-06T19:39:38.379Z,3.00
2022-12-06T19:42:42.674Z,2.70
2022-12-06T19:45:28.104Z,2.60
2022-12-06T19:48:14.602Z,2.55
2022-12-06T19:51:00.980Z,2.28
2022-12-06T19:53:46.790Z,2.53
2022-12-06T19:56:32.662Z,2.17
2022-12-06T19:59:19.603Z,2.53
2022-12-06T20:02:06.726Z,3.05
2022-12-06T20:04:52.753Z,2.38
2022-12-06T20:07:38.143Z,2.20
2022-12-06T20:10:23.646Z,2.63
2022-12-06T20:13:09.758Z,2.20
2022-12-06T20:16:02.876Z,2.35
2022-12-06T20:18:48.287Z,2.25
2022-12-06T20:21:33.912Z,2.30
2022-12-06T20:24:21.570Z,2.20
2022-12-06T20:27:07.433Z,2.08
2022-12-06T20:29:52.812Z,1.95
2022-12-06T20:32:38.251Z,2.15
2022-12-06T20:35:25.883Z,2.25
2022-12-06T20:38:11.560Z,2.10
2022-12-06T20:40:56.964Z,1.85
2022-12-06T20:43:43.446Z,1.90
2022-12-06T20:46:31.197Z,2.08
2022-12-06T20:49:17.428Z,2.28
2022-12-06T20:52:04.859Z,1.83
2022-12-06T20:54:51.886Z,1.67
2022-12-06T20:57:38.055Z,1.83
2022-12-06T21:00:23.937Z,1.90
2022-12-06T21:03:09.628Z,1.80
2022-12-06T21:06:03.478Z,1.95
2022-12-06T21:08:49.718Z,1.83
2022-12-06T21:11:35.324Z,1.80
2022-12-06T21:14:20.868Z,2.10
2022-12-06T21:17:06.353Z,1.58
2022-12-06T21:19:51.825Z,1.90
2022-12-06T21:22:37.327Z,2.33
2022-12-06T21:25:22.838Z,1.80
2022-12-06T21:28:08.494Z,1.77
2022-12-06T21:30:55.088Z,2.13
2022-12-06T21:33:41.487Z,1.85
2022-12-06T21:36:27.353Z,1.70
2022-12-06T21:39:14.496Z,2.00
2022-12-06T21:42:00.205Z,2.20
2022-12-06T21:44:45.751Z,1.70
2022-12-06T21:47:31.452Z,1.75
2022-12-06T21:50:17.303Z,1.80
2022-12-06T21:53:03.582Z,1.70
2022-12-06T21:55:48.985Z,1.58
2022-12-06T21:58:35.305Z,1.73
2022-12-06T22:01:24.762Z,1.73
2022-12-06T22:04:10.581Z,1.45
2022-12-06T22:06:56.051Z,2.03
2022-12-06T22:09:41.485Z,1.80
2022-12-06T22:12:27.479Z,1.80
2022-12-06T22:15:12.952Z,1.90
2022-12-06T22:17:58.393Z,1.85
2022-12-06T22:20:43.959Z,2.60
2022-12-06T22:23:30.745Z,2.57
2022-12-06T22:26:20.508Z,2.87
2022-12-06T22:29:06.406Z,3.00
2022-12-06T22:31:52.273Z,3.03
2022-12-06T22:34:37.786Z,2.77
2022-12-06T22:37:28.529Z,3.03
2022-12-06T22:40:14.610Z,3.00
2022-12-06T22:43:00.249Z,2.77
2022-12-06T22:45:45.883Z,3.10
2022-12-06T22:48:31.873Z,3.53
2022-12-06T22:51:31.406Z,3.57
2022-12-06T22:54:17.115Z,3.47
2022-12-06T22:57:02.707Z,4.20
2022-12-06T22:59:48.228Z,3.20
2022-12-06T23:02:33.636Z,3.80
2022-12-06T23:05:19.304Z,4.50
2022-12-06T23:08:05.086Z,3.60
2022-12-06T23:10:58.028Z,3.47
2022-12-06T23:13:43.874Z,3.60
2022-12-06T23:16:31.100Z,4.83
2022-12-06T23:19:16.463Z,4.43
2022-12-06T23:22:01.896Z,4.80
2022-12-06T23:24:49.695Z,4.70
2022-12-06T23:27:35.656Z,5.40
2022-12-06T23:30:21.311Z,4.70
2022-12-06T23:33:06.739Z,6.23
2022-12-06T23:36:03.729Z,5.70
2022-12-06T23:38:49.433Z,4.87
2022-12-06T23:41:36.084Z,5.80
2022-12-06T23:44:21.643Z,5.77
2022-12-06T23:47:07.097Z,6.47
2022-12-06T23:49:52.476Z,7.40
2022-12-06T23:52:37.911Z,8.30
2022-12-06T23:55:23.395Z,6.20
2022-12-06T23:58:08.727Z,8.30
